sim
Sign-in with your pilot id or email,
or register
Callsign
Passwort

Schedule Details

Flight Number: OEO7868
Departure: Hamburg Airport (EDDH) at 06:30
Arrival: Fuerteventura Airport (GCFV) at 11:55

Weather Information
Getting current METAR information for EDDH 172220Z 18007KT 9999 BKN013 18/17 Q1006 BECMG SCT015
Getting current METAR information for GCFV 172200Z 03007KT CAVOK 24/20 Q1013

Schedule Frequency

Route Map